createdAt,value
2023-05-21T00:00:50.507Z,78.14
2023-05-21T00:01:50.493Z,78.24
2023-05-21T00:02:50.523Z,78.24
2023-05-21T00:03:50.629Z,78.34
2023-05-21T00:04:50.485Z,78.44
2023-05-21T00:05:50.546Z,78.44
2023-05-21T00:06:50.434Z,78.55
2023-05-21T00:07:50.408Z,78.55
2023-05-21T00:08:50.422Z,78.64
2023-05-21T00:09:50.392Z,78.75
2023-05-21T00:10:50.434Z,78.75
2023-05-21T00:11:50.393Z,78.88
2023-05-21T00:12:50.402Z,78.99
2023-05-21T00:13:50.379Z,78.99
2023-05-21T00:14:50.365Z,78.99
2023-05-21T00:15:50.521Z,78.99
2023-05-21T00:16:50.392Z,78.99
2023-05-21T00:17:50.341Z,79.08
2023-05-21T00:18:50.334Z,79.08
2023-05-21T00:19:50.297Z,78.99
2023-05-21T00:20:50.293Z,79.08
2023-05-21T00:21:50.297Z,79.08
2023-05-21T00:22:50.268Z,79.19
2023-05-21T00:23:50.267Z,79.19
2023-05-21T00:24:50.238Z,79.29
2023-05-21T00:25:50.246Z,79.29
2023-05-21T00:26:50.263Z,79.39
2023-05-21T00:27:50.225Z,79.49
2023-05-21T00:28:50.219Z,79.59
2023-05-21T00:29:50.195Z,79.59
2023-05-21T00:30:50.187Z,79.59
2023-05-21T00:31:50.261Z,79.59
2023-05-21T00:32:50.204Z,79.59
2023-05-21T00:33:50.157Z,79.59
2023-05-21T00:34:50.140Z,79.59
2023-05-21T00:35:50.140Z,79.73
2023-05-21T00:36:50.151Z,79.69
2023-05-21T00:37:50.102Z,79.59
2023-05-21T00:38:50.135Z,79.69
2023-05-21T00:39:50.106Z,79.73
2023-05-21T00:40:50.093Z,79.83
2023-05-21T00:41:50.102Z,79.83
2023-05-21T00:42:50.065Z,79.83
2023-05-21T00:43:50.036Z,79.73
2023-05-21T00:44:50.033Z,79.83
2023-05-21T00:45:50.060Z,79.83
2023-05-21T00:46:50.017Z,79.73
2023-05-21T00:47:50.093Z,79.73
2023-05-21T00:48:49.998Z,79.83
2023-05-21T00:49:49.974Z,79.83
2023-05-21T00:50:49.992Z,79.83
2023-05-21T00:51:49.985Z,79.83
2023-05-21T00:52:50.015Z,79.93
2023-05-21T00:53:49.957Z,79.93
2023-05-21T00:54:49.944Z,79.93
2023-05-21T00:55:49.934Z,80.13
2023-05-21T00:56:49.942Z,80.13
2023-05-21T00:57:49.916Z,80.13
2023-05-21T00:58:49.943Z,80.13
2023-05-21T00:59:49.868Z,80.04
2023-05-21T01:00:49.869Z,80.04
2023-05-21T01:01:50.041Z,80.04
2023-05-21T01:02:49.932Z,80.04
2023-05-21T01:03:49.842Z,80.13
2023-05-21T01:04:49.882Z,80.04
2023-05-21T01:05:49.816Z,80.13
2023-05-21T01:06:49.825Z,80.13
2023-05-21T01:07:49.811Z,80.24
2023-05-21T01:08:49.807Z,80.13
2023-05-21T01:09:49.792Z,80.04
2023-05-21T01:10:49.793Z,80.04
2023-05-21T01:11:49.791Z,80.04
2023-05-21T01:12:49.745Z,80.04
2023-05-21T01:13:49.738Z,80.13
2023-05-21T01:14:49.735Z,80.13
2023-05-21T01:15:49.732Z,80.04
2023-05-21T01:16:49.873Z,80.13
2023-05-21T01:17:49.773Z,80.13
2023-05-21T01:18:49.851Z,80.13
2023-05-21T01:19:49.712Z,80.13
2023-05-21T01:20:49.695Z,80.13
2023-05-21T01:21:49.690Z,80.13
2023-05-21T01:22:49.641Z,80.13
2023-05-21T01:23:49.642Z,80.13
2023-05-21T01:24:49.623Z,80.04
2023-05-21T01:25:49.610Z,80.13
2023-05-21T01:26:49.610Z,80.04
2023-05-21T01:27:49.633Z,80.04
2023-05-21T01:28:49.583Z,79.93
2023-05-21T01:29:49.579Z,79.93
2023-05-21T01:30:49.584Z,79.83
2023-05-21T01:31:49.562Z,79.93
2023-05-21T01:32:49.645Z,80.04
2023-05-21T01:33:49.613Z,79.93
2023-05-21T01:34:49.550Z,79.93
2023-05-21T01:35:49.523Z,80.13
2023-05-21T01:36:49.511Z,80.04
2023-05-21T01:37:49.530Z,80.04
2023-05-21T01:38:49.479Z,80.04
2023-05-21T01:39:49.463Z,80.04
2023-05-21T01:40:49.456Z,80.04
2023-05-21T01:41:49.445Z,80.13
2023-05-21T01:42:49.442Z,80.13
2023-05-21T01:43:49.459Z,80.24
2023-05-21T01:44:49.422Z,80.34
2023-05-21T01:45:49.399Z,80.34
2023-05-21T01:46:49.489Z,80.34
2023-05-21T01:47:49.500Z,80.34
2023-05-21T01:48:49.396Z,80.34
2023-05-21T01:49:49.403Z,80.24
2023-05-21T01:50:49.378Z,80.13
2023-05-21T01:51:49.349Z,80.04
2023-05-21T01:52:49.347Z,80.13
2023-05-21T01:53:49.346Z,80.13
2023-05-21T01:54:49.313Z,80.13
2023-05-21T01:55:49.336Z,80.13
2023-05-21T01:56:49.301Z,80.13
2023-05-21T01:57:49.282Z,80.13
2023-05-21T01:58:49.273Z,80.13
2023-05-21T01:59:49.285Z,80.13
2023-05-21T02:00:49.298Z,80.13
2023-05-21T02:01:49.327Z,80.13
2023-05-21T02:02:49.318Z,80.13
2023-05-21T02:03:49.306Z,80.04
2023-05-21T02:04:49.237Z,80.04
2023-05-21T02:05:49.242Z,79.93
2023-05-21T02:06:49.238Z,80.04
2023-05-21T02:07:49.186Z,80.13
2023-05-21T02:08:49.199Z,80.13
2023-05-21T02:09:49.197Z,80.13
2023-05-21T02:10:49.156Z,80.24
2023-05-21T02:11:49.175Z,80.24
2023-05-21T02:12:49.143Z,80.34
2023-05-21T02:13:49.126Z,80.47
2023-05-21T02:14:49.113Z,80.58
2023-05-21T02:15:49.135Z,80.58
2023-05-21T02:16:49.108Z,80.58
2023-05-21T02:17:49.156Z,80.68
2023-05-21T02:18:49.120Z,80.78
2023-05-21T02:19:49.067Z,80.68
2023-05-21T02:20:49.076Z,80.68
2023-05-21T02:21:49.073Z,80.78
2023-05-21T02:22:49.078Z,80.78
2023-05-21T02:23:49.097Z,80.78
2023-05-21T02:24:49.056Z,80.78
2023-05-21T02:25:49.039Z,80.78
2023-05-21T02:26:49.006Z,80.78
2023-05-21T02:27:48.986Z,80.78
2023-05-21T02:28:49.003Z,80.88
2023-05-21T02:29:48.964Z,80.98
2023-05-21T02:30:48.967Z,80.98
2023-05-21T02:31:48.950Z,80.98
2023-05-21T02:32:49.136Z,80.88
2023-05-21T02:33:48.977Z,80.98
2023-05-21T02:34:48.943Z,80.98
2023-05-21T02:35:48.906Z,80.98
2023-05-21T02:36:48.911Z,80.98
2023-05-21T02:37:48.897Z,80.98
2023-05-21T02:38:48.882Z,80.98
2023-05-21T02:39:48.886Z,80.98
2023-05-21T02:40:48.870Z,80.98
2023-05-21T02:41:48.855Z,80.98
2023-05-21T02:42:48.835Z,80.98
2023-05-21T02:43:48.816Z,80.98
2023-05-21T02:44:48.828Z,81.09
2023-05-21T02:45:48.826Z,81.09
2023-05-21T02:46:48.798Z,81.09
2023-05-21T02:47:48.815Z,81.18
2023-05-21T02:48:48.767Z,81.18
2023-05-21T02:49:48.805Z,81.32
2023-05-21T02:50:48.759Z,81.43
2023-05-21T02:51:48.731Z,81.43
2023-05-21T02:52:48.720Z,81.52
2023-05-21T02:53:48.721Z,81.43
2023-05-21T02:54:48.739Z,81.43
2023-05-21T02:55:48.706Z,81.43
2023-05-21T02:56:48.714Z,81.43
2023-05-21T02:57:48.686Z,81.43
2023-05-21T02:58:48.676Z,81.43
2023-05-21T02:59:48.674Z,81.52
2023-05-21T03:00:48.636Z,81.52
2023-05-21T03:01:48.704Z,81.52
2023-05-21T03:02:48.731Z,81.52
2023-05-21T03:03:48.685Z,81.63
2023-05-21T03:04:48.629Z,81.63
2023-05-21T03:05:48.637Z,81.63
2023-05-21T03:06:48.597Z,81.63
2023-05-21T03:07:48.582Z,81.63
2023-05-21T03:08:48.558Z,81.63
2023-05-21T03:09:48.588Z,81.63
2023-05-21T03:10:48.541Z,81.63
2023-05-21T03:11:48.532Z,81.63
2023-05-21T03:12:48.513Z,81.73
2023-05-21T03:13:48.557Z,81.73
2023-05-21T03:14:48.520Z,81.63
2023-05-21T03:15:48.551Z,81.73
2023-05-21T03:16:48.532Z,81.73
2023-05-21T03:17:48.587Z,81.73
2023-05-21T03:18:48.504Z,81.73
2023-05-21T03:19:48.453Z,81.83
2023-05-21T03:20:48.432Z,81.93
2023-05-21T03:21:48.975Z,81.93
2023-05-21T03:22:48.437Z,81.93
2023-05-21T03:23:48.419Z,81.93
2023-05-21T03:24:48.422Z,82.03
2023-05-21T03:25:48.408Z,82.03
2023-05-21T03:26:48.404Z,82.14
2023-05-21T03:27:48.419Z,82.24
2023-05-21T03:28:48.376Z,82.24
2023-05-21T03:29:48.373Z,82.24
2023-05-21T03:30:48.345Z,82.34
2023-05-21T03:31:48.406Z,82.34
2023-05-21T03:32:48.345Z,82.24
2023-05-21T03:33:48.314Z,82.24
2023-05-21T03:34:48.302Z,82.34
2023-05-21T03:35:48.275Z,82.24
2023-05-21T03:36:48.270Z,82.14
2023-05-21T03:37:48.278Z,82.03
2023-05-21T03:38:48.311Z,81.93
2023-05-21T03:39:48.267Z,81.83
2023-05-21T03:40:48.247Z,81.83
2023-05-21T03:41:48.239Z,81.83
2023-05-21T03:42:48.234Z,81.73
2023-05-21T03:43:48.246Z,81.73
2023-05-21T03:44:48.210Z,81.73
2023-05-21T03:45:48.241Z,81.83
2023-05-21T03:46:48.187Z,81.83
2023-05-21T03:47:48.230Z,81.83
2023-05-21T03:48:48.195Z,81.83
2023-05-21T03:49:48.141Z,81.73
2023-05-21T03:50:48.161Z,81.73
2023-05-21T03:51:48.143Z,81.73
2023-05-21T03:52:48.129Z,81.73
2023-05-21T03:53:48.114Z,81.73
2023-05-21T03:54:48.114Z,81.63
2023-05-21T03:55:48.081Z,81.73
2023-05-21T03:56:48.081Z,81.49
2023-05-21T03:57:48.060Z,81.49
2023-05-21T03:58:48.081Z,81.49
2023-05-21T03:59:48.104Z,81.39
2023-05-21T04:00:48.044Z,81.39
2023-05-21T04:01:48.017Z,81.39
2023-05-21T04:02:48.177Z,81.39
2023-05-21T04:03:48.150Z,81.29
2023-05-21T04:04:48.180Z,81.29
2023-05-21T04:05:48.001Z,81.29
2023-05-21T04:06:47.984Z,81.29
2023-05-21T04:07:47.969Z,81.39
2023-05-21T04:08:47.958Z,81.29
2023-05-21T04:09:47.968Z,81.39
2023-05-21T04:10:47.926Z,81.39
2023-05-21T04:11:47.924Z,81.39
2023-05-21T04:12:47.924Z,81.39
2023-05-21T04:13:47.886Z,81.39
2023-05-21T04:14:47.932Z,81.39
2023-05-21T04:15:47.893Z,81.39
2023-05-21T04:16:47.870Z,81.29
2023-05-21T04:17:47.902Z,81.18
2023-05-21T04:18:47.896Z,81.18
2023-05-21T04:19:47.896Z,81.18
2023-05-21T04:20:47.848Z,80.98
2023-05-21T04:21:47.829Z,80.98
2023-05-21T04:22:47.794Z,80.88
2023-05-21T04:23:47.803Z,80.88
2023-05-21T04:24:47.790Z,80.98
2023-05-21T04:25:47.766Z,80.78
2023-05-21T04:26:47.784Z,80.78
2023-05-21T04:27:47.877Z,80.78
2023-05-21T04:28:47.763Z,80.68
2023-05-21T04:29:49.003Z,80.68
2023-05-21T04:30:47.762Z,80.58
2023-05-21T04:31:47.799Z,80.64
2023-05-21T04:32:47.754Z,80.74
2023-05-21T04:33:47.697Z,80.64
2023-05-21T04:34:47.682Z,80.64
2023-05-21T04:35:47.712Z,80.64
2023-05-21T04:36:47.654Z,80.54
2023-05-21T04:37:47.670Z,80.64
2023-05-21T04:38:47.637Z,80.64
2023-05-21T04:39:47.639Z,80.64
2023-05-21T04:40:47.634Z,80.74
2023-05-21T04:41:47.617Z,80.64
2023-05-21T04:42:47.623Z,80.74
2023-05-21T04:43:47.608Z,80.74
2023-05-21T04:44:47.584Z,80.74
2023-05-21T04:45:47.599Z,80.64
2023-05-21T04:46:47.632Z,80.74
2023-05-21T04:47:47.618Z,80.74
2023-05-21T04:48:47.544Z,80.74
2023-05-21T04:49:47.561Z,80.74
2023-05-21T04:50:47.547Z,80.64
2023-05-21T04:51:47.508Z,80.64
2023-05-21T04:52:47.495Z,80.64
2023-05-21T04:53:47.477Z,80.84
2023-05-21T04:54:47.475Z,80.84
2023-05-21T04:55:47.501Z,80.84
2023-05-21T04:56:47.473Z,80.84
2023-05-21T04:57:47.466Z,80.84
2023-05-21T04:58:47.436Z,80.84
2023-05-21T04:59:47.431Z,80.74
2023-05-21T05:00:47.609Z,80.84
2023-05-21T05:01:47.405Z,80.94
2023-05-21T05:02:47.483Z,81.15
2023-05-21T05:03:47.415Z,81.15
2023-05-21T05:04:47.377Z,81.05
2023-05-21T05:05:47.406Z,81.05
2023-05-21T05:06:47.368Z,81.05
2023-05-21T05:07:47.365Z,80.84
2023-05-21T05:08:47.340Z,80.71
2023-05-21T05:09:47.331Z,80.71
2023-05-21T05:10:47.322Z,80.60
2023-05-21T05:11:47.348Z,80.71
2023-05-21T05:12:47.309Z,80.60
2023-05-21T05:13:47.368Z,80.60
2023-05-21T05:14:47.262Z,80.60
2023-05-21T05:15:49.655Z,80.40
2023-05-21T05:16:47.313Z,80.40
2023-05-21T05:17:47.299Z,80.50
2023-05-21T05:18:47.271Z,80.50
2023-05-21T05:19:47.238Z,80.50
2023-05-21T05:20:47.208Z,80.30
2023-05-21T05:21:47.210Z,80.40
2023-05-21T05:22:47.217Z,80.30
2023-05-21T05:23:47.232Z,80.40
2023-05-21T05:24:47.186Z,80.30
2023-05-21T05:25:47.170Z,80.30
2023-05-21T05:26:47.148Z,80.10
2023-05-21T05:27:47.135Z,80.20
2023-05-21T05:28:47.149Z,80.20
2023-05-21T05:29:47.161Z,80.20
2023-05-21T05:30:47.160Z,80.16
2023-05-21T05:31:47.101Z,80.26
2023-05-21T05:32:47.193Z,80.06
2023-05-21T05:33:47.093Z,80.10
2023-05-21T05:34:47.086Z,80.06
2023-05-21T05:35:47.102Z,80.16
2023-05-21T05:36:47.077Z,80.06
2023-05-21T05:37:47.044Z,80.26
2023-05-21T05:38:47.054Z,80.16
2023-05-21T05:39:47.007Z,80.06
2023-05-21T05:40:47.027Z,80.06
2023-05-21T05:41:47.001Z,80.16
2023-05-21T05:42:47.186Z,80.16
2023-05-21T05:43:46.978Z,80.26
2023-05-21T05:44:46.983Z,80.06
2023-05-21T05:45:46.966Z,80.06
2023-05-21T05:46:47.043Z,79.96
2023-05-21T05:47:47.023Z,79.86
2023-05-21T05:48:46.935Z,79.86
2023-05-21T05:49:46.914Z,79.86
2023-05-21T05:50:46.918Z,79.72
2023-05-21T05:51:46.909Z,79.52
2023-05-21T05:52:46.912Z,79.41
2023-05-21T05:53:46.871Z,79.52
2023-05-21T05:54:46.867Z,79.32
2023-05-21T05:55:46.846Z,79.11
2023-05-21T05:56:46.823Z,79.11
2023-05-21T05:57:46.838Z,79.11
2023-05-21T05:58:46.846Z,79.01
2023-05-21T05:59:46.826Z,79.01
2023-05-21T06:00:46.819Z,78.97
2023-05-21T06:01:46.800Z,78.77
2023-05-21T06:02:46.893Z,78.67
2023-05-21T06:03:47.145Z,78.57
2023-05-21T06:04:46.766Z,78.27
2023-05-21T06:05:46.785Z,78.27
2023-05-21T06:06:46.718Z,78.06
2023-05-21T06:07:46.727Z,78.06
2023-05-21T06:08:46.764Z,77.93
2023-05-21T06:09:46.700Z,77.62
2023-05-21T06:10:46.701Z,77.73
2023-05-21T06:11:46.696Z,77.53
2023-05-21T06:12:46.706Z,77.42
2023-05-21T06:13:46.677Z,77.12
2023-05-21T06:14:46.652Z,77.12
2023-05-21T06:15:46.707Z,77.02
2023-05-21T06:16:46.639Z,76.78
2023-05-21T06:17:46.667Z,76.78
2023-05-21T06:18:46.656Z,77.08
2023-05-21T06:19:46.589Z,76.98
2023-05-21T06:20:46.588Z,77.19
2023-05-21T06:21:46.573Z,76.88
2023-05-21T06:22:46.593Z,76.58
2023-05-21T06:23:46.556Z,76.68
2023-05-21T06:24:46.542Z,76.95
2023-05-21T06:25:46.561Z,76.75
2023-05-21T06:26:46.561Z,76.54
2023-05-21T06:27:46.529Z,76.54
2023-05-21T06:28:46.578Z,76.44
2023-05-21T06:29:46.519Z,76.34
2023-05-21T06:30:46.502Z,76.14
2023-05-21T06:31:46.517Z,76.04
2023-05-21T06:32:46.623Z,76.34
2023-05-21T06:33:46.530Z,76.14
2023-05-21T06:34:46.472Z,75.60
2023-05-21T06:35:46.426Z,74.90
2023-05-21T06:36:46.428Z,74.49
2023-05-21T06:37:46.408Z,74.49
2023-05-21T06:38:46.405Z,74.49
2023-05-21T06:39:46.627Z,74.90
2023-05-21T06:40:46.400Z,74.49
2023-05-21T06:41:46.390Z,74.59
2023-05-21T06:42:46.362Z,74.66
2023-05-21T06:43:46.368Z,74.46
2023-05-21T06:44:46.374Z,74.15
2023-05-21T06:45:46.372Z,74.26
2023-05-21T06:46:46.334Z,74.35
2023-05-21T06:47:46.368Z,74.15
2023-05-21T06:48:46.312Z,74.15
2023-05-21T06:49:46.345Z,73.75
2023-05-21T06:50:46.282Z,73.95
2023-05-21T06:51:46.335Z,74.15
2023-05-21T06:52:46.264Z,74.52
2023-05-21T06:53:46.247Z,74.82
2023-05-21T06:54:46.235Z,75.13
2023-05-21T06:55:46.255Z,75.33
2023-05-21T06:56:46.216Z,75.13
2023-05-21T06:57:46.223Z,74.93
2023-05-21T06:58:46.222Z,74.52
2023-05-21T06:59:46.239Z,74.62
2023-05-21T07:00:46.275Z,74.69
2023-05-21T07:01:46.351Z,74.38
2023-05-21T07:02:46.270Z,74.49
2023-05-21T07:03:46.187Z,74.08
2023-05-21T07:04:46.139Z,73.78
2023-05-21T07:05:46.150Z,73.88
2023-05-21T07:06:46.128Z,73.68
2023-05-21T07:07:46.133Z,73.28
2023-05-21T07:08:46.111Z,72.77
2023-05-21T07:09:46.097Z,72.64
2023-05-21T07:10:46.077Z,72.84
2023-05-21T07:11:46.072Z,72.54
2023-05-21T07:12:46.102Z,72.44
2023-05-21T07:13:46.050Z,72.24
2023-05-21T07:14:46.027Z,72.24
2023-05-21T07:15:46.029Z,71.73
2023-05-21T07:16:46.060Z,71.63
2023-05-21T07:17:46.097Z,70.89
2023-05-21T07:18:46.008Z,71.00
2023-05-21T07:19:45.985Z,71.20
2023-05-21T07:20:45.966Z,71.40
2023-05-21T07:21:45.954Z,71.60
2023-05-21T07:22:46.003Z,71.30
2023-05-21T07:23:45.950Z,71.40
2023-05-21T07:24:45.958Z,71.06
2023-05-21T07:25:45.942Z,70.96
2023-05-21T07:26:45.918Z,70.56
2023-05-21T07:27:45.910Z,70.36
2023-05-21T07:28:46.014Z,70.56
2023-05-21T07:29:45.895Z,70.46
2023-05-21T07:30:45.908Z,70.12
2023-05-21T07:31:45.862Z,69.12
2023-05-21T07:32:45.884Z,68.52
2023-05-21T07:33:45.858Z,69.12
2023-05-21T07:34:45.869Z,69.22
2023-05-21T07:35:45.851Z,69.52
2023-05-21T07:36:45.827Z,68.92
2023-05-21T07:37:45.873Z,68.62
2023-05-21T07:38:45.817Z,68.52
2023-05-21T07:39:45.817Z,68.32
2023-05-21T07:40:45.801Z,68.29
2023-05-21T07:41:45.760Z,69.09
2023-05-21T07:42:45.736Z,68.79
2023-05-21T07:43:45.752Z,68.38
2023-05-21T07:44:45.749Z,68.08
2023-05-21T07:45:45.772Z,68.18
2023-05-21T07:46:45.829Z,68.18
2023-05-21T07:47:45.738Z,68.35
2023-05-21T07:48:45.722Z,68.55
2023-05-21T07:49:45.688Z,67.55
2023-05-21T07:50:45.698Z,67.95
2023-05-21T07:51:45.668Z,67.14
2023-05-21T07:52:45.663Z,67.11
2023-05-21T07:53:45.640Z,67.02
2023-05-21T07:54:45.645Z,66.82
2023-05-21T07:55:45.653Z,66.52
2023-05-21T07:56:45.657Z,66.11
2023-05-21T07:57:45.616Z,65.81
2023-05-21T07:58:45.591Z,66.41
2023-05-21T07:59:45.600Z,66.61
2023-05-21T08:00:45.589Z,66.88
2023-05-21T08:01:45.566Z,66.58
2023-05-21T08:02:45.683Z,66.58
2023-05-21T08:03:45.777Z,65.98
2023-05-21T08:04:45.596Z,65.58
2023-05-21T08:05:45.515Z,65.98
2023-05-21T08:06:45.502Z,66.48
2023-05-21T08:07:45.524Z,65.78
2023-05-21T08:08:45.482Z,65.88
2023-05-21T08:09:45.471Z,65.78
2023-05-21T08:10:45.473Z,65.75
2023-05-21T08:11:45.461Z,65.75
2023-05-21T08:12:45.471Z,65.55
2023-05-21T08:13:45.451Z,65.85
2023-05-21T08:14:45.444Z,65.85
2023-05-21T08:15:45.439Z,65.65
2023-05-21T08:16:45.443Z,65.55
2023-05-21T08:17:45.415Z,65.35
2023-05-21T08:18:45.429Z,64.84
2023-05-21T08:19:45.379Z,64.25
2023-05-21T08:20:45.379Z,64.25
2023-05-21T08:21:45.417Z,63.95
2023-05-21T08:22:45.344Z,63.54
2023-05-21T08:23:45.339Z,63.54
2023-05-21T08:24:45.336Z,63.54
2023-05-21T08:25:45.309Z,63.45
2023-05-21T08:26:45.328Z,63.75
2023-05-21T08:27:45.302Z,64.15
2023-05-21T08:28:45.290Z,64.04
2023-05-21T08:29:45.286Z,64.34
2023-05-21T08:30:45.311Z,64.15
2023-05-21T08:31:45.356Z,63.81
2023-05-21T08:32:45.301Z,63.42
2023-05-21T08:33:45.243Z,62.61
2023-05-21T08:34:45.211Z,62.71
2023-05-21T08:35:45.227Z,63.01
2023-05-21T08:36:45.638Z,62.92
2023-05-21T08:37:45.204Z,61.91
2023-05-21T08:38:45.197Z,61.88
2023-05-21T08:39:45.175Z,62.28
2023-05-21T08:40:45.159Z,61.58
2023-05-21T08:41:45.154Z,60.68
2023-05-21T08:42:45.192Z,60.35
2023-05-21T08:43:45.133Z,60.35
2023-05-21T08:44:45.156Z,60.85
2023-05-21T08:45:45.203Z,59.75
2023-05-21T08:46:45.108Z,59.55
2023-05-21T08:47:45.135Z,59.55
2023-05-21T08:48:45.125Z,59.72
2023-05-21T08:49:45.073Z,59.62
2023-05-21T08:50:45.055Z,59.92
2023-05-21T08:51:45.055Z,57.89
2023-05-21T08:52:45.034Z,57.69
2023-05-21T08:53:45.027Z,57.50
2023-05-21T08:54:45.057Z,57.89
2023-05-21T08:55:45.005Z,57.69
2023-05-21T08:56:45.002Z,56.49
2023-05-21T08:57:44.991Z,56.49
2023-05-21T08:58:44.990Z,56.49
2023-05-21T08:59:44.973Z,55.89
2023-05-21T09:00:44.985Z,56.49
2023-05-21T09:01:45.056Z,56.49
2023-05-21T09:02:44.986Z,56.29
2023-05-21T09:03:44.980Z,56.29
2023-05-21T09:04:45.024Z,55.99
2023-05-21T09:05:44.912Z,55.99
2023-05-21T09:06:44.923Z,55.69
2023-05-21T09:07:44.898Z,55.57
2023-05-21T09:08:44.913Z,56.07
2023-05-21T09:09:44.890Z,55.57
2023-05-21T09:10:44.863Z,55.24
2023-05-21T09:11:44.879Z,54.84
2023-05-21T09:12:44.954Z,54.64
2023-05-21T09:13:44.826Z,55.24
2023-05-21T09:14:44.881Z,55.54
2023-05-21T09:15:44.809Z,55.84
2023-05-21T09:16:44.842Z,55.54
2023-05-21T09:17:44.836Z,55.84
2023-05-21T09:18:44.823Z,55.34
2023-05-21T09:19:44.756Z,55.34
2023-05-21T09:20:44.746Z,55.34
2023-05-21T09:21:44.740Z,55.04
2023-05-21T09:22:44.754Z,55.34
2023-05-21T09:23:44.736Z,55.64
2023-05-21T09:24:44.769Z,55.07
2023-05-21T09:25:44.755Z,55.24
2023-05-21T09:26:44.740Z,55.64
2023-05-21T09:27:44.682Z,55.66
2023-05-21T09:28:44.695Z,56.37
2023-05-21T09:29:44.669Z,56.24
2023-05-21T09:30:44.652Z,56.34
2023-05-21T09:31:44.787Z,56.44
2023-05-21T09:32:44.668Z,55.54
2023-05-21T09:33:44.618Z,55.64
2023-05-21T09:34:44.609Z,55.14
2023-05-21T09:35:44.751Z,54.94
2023-05-21T09:36:44.619Z,55.74
2023-05-21T09:37:44.597Z,55.84
2023-05-21T09:38:44.583Z,56.14
2023-05-21T09:39:44.576Z,57.01
2023-05-21T09:40:44.564Z,56.31
2023-05-21T09:41:44.600Z,55.91
2023-05-21T09:42:44.542Z,56.11
2023-05-21T09:43:44.517Z,56.01
2023-05-21T09:44:44.506Z,55.21
2023-05-21T09:45:44.495Z,55.32
2023-05-21T09:46:44.619Z,54.61
2023-05-21T09:47:44.685Z,54.71
2023-05-21T09:48:44.502Z,55.02
2023-05-21T09:49:44.476Z,54.91
2023-05-21T09:50:44.467Z,54.99
2023-05-21T09:51:44.446Z,55.29
2023-05-21T09:52:44.472Z,54.89
2023-05-21T09:53:44.444Z,54.59
2023-05-21T09:54:44.401Z,54.76
2023-05-21T09:55:44.387Z,54.46
2023-05-21T09:56:44.386Z,54.57
2023-05-21T09:57:44.402Z,54.46
2023-05-21T09:58:44.357Z,54.46
2023-05-21T09:59:44.339Z,53.86
2023-05-21T10:00:44.347Z,54.36
2023-05-21T10:01:44.373Z,53.66
2023-05-21T10:02:44.385Z,53.47
2023-05-21T10:03:44.368Z,53.36
2023-05-21T10:04:44.457Z,53.47
2023-05-21T10:05:44.309Z,53.27
2023-05-21T10:06:44.336Z,53.47
2023-05-21T10:07:44.303Z,53.77
2023-05-21T10:08:44.308Z,52.94
2023-05-21T10:09:44.256Z,52.44
2023-05-21T10:10:44.247Z,52.34
2023-05-21T10:11:44.237Z,52.74
2023-05-21T10:12:44.230Z,52.34
2023-05-21T10:13:44.223Z,52.94
2023-05-21T10:14:44.217Z,52.44
2023-05-21T10:15:44.356Z,52.25
2023-05-21T10:16:44.640Z,52.44
2023-05-21T10:17:44.204Z,53.14
2023-05-21T10:18:44.262Z,54.14
2023-05-21T10:19:44.140Z,53.14
2023-05-21T10:20:44.159Z,51.95
2023-05-21T10:21:44.130Z,52.14
2023-05-21T10:22:44.116Z,52.34
2023-05-21T10:23:44.147Z,51.75
2023-05-21T10:24:44.109Z,52.04
2023-05-21T10:25:44.100Z,52.25
2023-05-21T10:26:44.086Z,52.55
2023-05-21T10:27:44.073Z,52.81
2023-05-21T10:28:44.133Z,53.41
2023-05-21T10:29:44.063Z,53.31
2023-05-21T10:30:44.066Z,52.12
2023-05-21T10:31:44.115Z,51.72
2023-05-21T10:32:44.168Z,50.92
2023-05-21T10:33:44.025Z,50.43
2023-05-21T10:34:44.035Z,51.12
2023-05-21T10:35:43.976Z,52.22
2023-05-21T10:36:43.990Z,51.20
2023-05-21T10:37:43.966Z,51.00
2023-05-21T10:38:44.005Z,50.10
2023-05-21T10:39:43.958Z,50.00
2023-05-21T10:40:43.991Z,50.30
2023-05-21T10:41:43.921Z,50.60
2023-05-21T10:42:43.931Z,49.70
2023-05-21T10:43:43.917Z,48.80
2023-05-21T10:44:43.912Z,49.30
2023-05-21T10:45:43.950Z,49.80
2023-05-21T10:46:43.923Z,49.80
2023-05-21T10:47:43.964Z,49.80
2023-05-21T10:48:43.975Z,50.10
2023-05-21T10:49:43.881Z,50.10
2023-05-21T10:50:43.834Z,50.20
2023-05-21T10:51:43.818Z,49.51
2023-05-21T10:52:43.811Z,49.18
2023-05-21T10:53:43.803Z,49.48
2023-05-21T10:54:43.840Z,49.08
2023-05-21T10:55:43.792Z,48.68
2023-05-21T10:56:43.785Z,48.38
2023-05-21T10:57:43.756Z,48.58
2023-05-21T10:58:43.849Z,48.79
2023-05-21T10:59:43.787Z,48.19
2023-05-21T11:00:43.775Z,48.19
2023-05-21T11:01:43.781Z,48.28
2023-05-21T11:02:43.826Z,48.96
2023-05-21T11:03:43.907Z,49.66
2023-05-21T11:04:43.739Z,49.66
2023-05-21T11:05:43.705Z,49.46
2023-05-21T11:06:43.675Z,49.16
2023-05-21T11:07:43.661Z,49.06
2023-05-21T11:08:43.662Z,47.47
2023-05-21T11:09:43.658Z,47.66
2023-05-21T11:10:43.633Z,47.37
2023-05-21T11:11:43.627Z,47.56
2023-05-21T11:12:43.622Z,47.27
2023-05-21T11:13:43.612Z,47.27
2023-05-21T11:14:43.642Z,47.77
2023-05-21T11:15:43.641Z,47.47
2023-05-21T11:16:43.637Z,46.95
2023-05-21T11:17:43.632Z,46.65
2023-05-21T11:18:43.656Z,46.95
2023-05-21T11:19:43.613Z,46.95
2023-05-21T11:20:43.550Z,46.65
2023-05-21T11:21:43.548Z,46.75
2023-05-21T11:22:43.531Z,47.25
2023-05-21T11:23:43.505Z,47.44
2023-05-21T11:24:43.517Z,47.34
2023-05-21T11:25:43.501Z,46.72
2023-05-21T11:26:43.494Z,45.53
2023-05-21T11:27:43.510Z,45.06
2023-05-21T11:28:43.476Z,45.65
2023-05-21T11:29:43.470Z,45.55
2023-05-21T11:30:43.651Z,45.95
2023-05-21T11:31:43.559Z,46.45
2023-05-21T11:32:43.452Z,46.05
2023-05-21T11:33:43.421Z,44.96
2023-05-21T11:34:43.387Z,45.15
2023-05-21T11:35:43.370Z,44.96
2023-05-21T11:36:43.376Z,45.55
2023-05-21T11:37:43.378Z,46.05
2023-05-21T11:38:43.360Z,46.35
2023-05-21T11:39:43.353Z,46.75
2023-05-21T11:40:43.347Z,46.45
2023-05-21T11:41:43.333Z,46.25
2023-05-21T11:42:43.353Z,46.45
2023-05-21T11:43:43.308Z,45.95
2023-05-21T11:44:43.308Z,45.85
2023-05-21T11:45:43.297Z,46.35
2023-05-21T11:46:43.278Z,46.55
2023-05-21T11:47:43.343Z,47.02
2023-05-21T11:48:43.249Z,46.53
2023-05-21T11:49:43.249Z,45.15
2023-05-21T11:50:43.253Z,44.76
2023-05-21T11:51:43.279Z,44.96
2023-05-21T11:52:43.217Z,45.06
2023-05-21T11:53:44.290Z,45.36
2023-05-21T11:54:43.209Z,45.48
2023-05-21T11:55:43.180Z,44.78
2023-05-21T11:56:43.161Z,44.66
2023-05-21T11:57:43.178Z,45.06
2023-05-21T11:58:43.152Z,45.45
2023-05-21T11:59:43.135Z,45.26
2023-05-21T12:00:43.135Z,45.55
2023-05-21T12:01:43.128Z,45.15
2023-05-21T12:02:43.199Z,45.06
2023-05-21T12:03:43.294Z,45.26
2023-05-21T12:04:43.091Z,45.75
2023-05-21T12:05:43.184Z,45.75
2023-05-21T12:06:43.074Z,45.26
2023-05-21T12:07:43.071Z,45.36
2023-05-21T12:08:43.089Z,45.65
2023-05-21T12:09:43.054Z,45.55
2023-05-21T12:10:44.423Z,45.55
2023-05-21T12:11:43.034Z,45.65
2023-05-21T12:12:53.937Z,45.65
2023-05-21T12:13:43.030Z,45.55
2023-05-21T12:14:43.000Z,45.55
2023-05-21T12:15:42.982Z,45.36
2023-05-21T12:16:43.014Z,45.36
2023-05-21T12:17:42.948Z,45.15
2023-05-21T12:18:43.004Z,45.45
2023-05-21T12:19:42.947Z,45.45
2023-05-21T12:20:42.939Z,45.45
2023-05-21T12:21:42.919Z,45.26
2023-05-21T12:22:42.917Z,45.55
2023-05-21T12:23:42.926Z,45.75
2023-05-21T12:24:42.891Z,45.65
2023-05-21T12:25:42.859Z,45.36
2023-05-21T12:26:42.881Z,45.36
2023-05-21T12:27:42.861Z,45.85
2023-05-21T12:28:42.854Z,46.13
2023-05-21T12:29:42.869Z,46.03
2023-05-21T12:30:42.835Z,45.83
2023-05-21T12:31:42.867Z,45.03
2023-05-21T12:32:42.913Z,45.73
2023-05-21T12:33:42.813Z,45.11
2023-05-21T12:34:42.783Z,44.81
2023-05-21T12:35:42.811Z,44.92
2023-05-21T12:36:42.755Z,45.90
2023-05-21T12:37:42.759Z,45.89
2023-05-21T12:38:42.751Z,44.89
2023-05-21T12:39:42.731Z,45.19
2023-05-21T12:40:42.742Z,44.79
2023-05-21T12:41:42.715Z,44.70
2023-05-21T12:42:42.719Z,44.49
2023-05-21T12:43:42.705Z,44.97
2023-05-21T12:44:42.694Z,45.17
2023-05-21T12:45:42.735Z,45.47
2023-05-21T12:46:42.756Z,44.27
2023-05-21T12:47:42.684Z,43.98
2023-05-21T12:48:42.664Z,44.48
2023-05-21T12:49:42.649Z,44.89
2023-05-21T12:50:42.668Z,44.40
2023-05-21T12:51:42.599Z,44.59
2023-05-21T12:52:42.600Z,44.49